createdAt,value
2018-05-29T00:00:46.656Z,21
2018-05-29T00:10:46.717Z,23
2018-05-29T00:20:46.732Z,22
2018-05-29T00:30:46.845Z,24
2018-05-29T00:40:46.674Z,24
2018-05-29T00:50:46.680Z,26
2018-05-29T01:00:46.750Z,26
2018-05-29T01:10:46.780Z,28
2018-05-29T01:20:46.752Z,28
2018-05-29T01:30:46.766Z,27
2018-05-29T01:40:46.613Z,27
2018-05-29T01:50:46.709Z,27
2018-05-29T02:00:46.720Z,28
2018-05-29T02:10:46.678Z,32
2018-05-29T02:20:46.780Z,31
2018-05-29T02:30:46.734Z,32
2018-05-29T02:40:46.774Z,35
2018-05-29T02:50:46.737Z,32
2018-05-29T03:00:46.689Z,32
2018-05-29T03:10:46.790Z,33
2018-05-29T03:20:46.740Z,33
2018-05-29T03:30:46.726Z,34
2018-05-29T03:40:46.766Z,34
2018-05-29T03:50:46.665Z,32
2018-05-29T04:00:46.713Z,33
2018-05-29T04:10:46.686Z,37
2018-05-29T04:20:46.761Z,54
2018-05-29T04:30:46.760Z,53
2018-05-29T04:40:46.710Z,53
2018-05-29T04:50:46.709Z,56
2018-05-29T05:00:46.707Z,46
2018-05-29T05:10:46.741Z,39
2018-05-29T05:20:46.778Z,38
2018-05-29T05:30:46.754Z,36
2018-05-29T05:40:46.790Z,35
2018-05-29T05:50:46.742Z,33
2018-05-29T06:00:46.710Z,31
2018-05-29T06:10:46.853Z,28
2018-05-29T06:20:46.721Z,25
2018-05-29T06:30:46.675Z,24
2018-05-29T06:40:46.782Z,21
2018-05-29T06:50:47.642Z,17
2018-05-29T07:00:46.820Z,15
2018-05-29T07:10:46.885Z,16
2018-05-29T07:20:46.895Z,15
2018-05-29T07:30:47.144Z,11
2018-05-29T07:40:46.735Z,13
2018-05-29T07:50:46.777Z,10
2018-05-29T08:00:46.780Z,10
2018-05-29T08:10:46.752Z,9
2018-05-29T08:20:46.789Z,11
2018-05-29T08:30:47.654Z,12
2018-05-29T08:40:46.765Z,10
2018-05-29T08:50:46.790Z,12
2018-05-29T09:00:46.758Z,12
2018-05-29T09:10:46.747Z,11
2018-05-29T09:20:46.820Z,14
2018-05-29T09:30:46.827Z,14
2018-05-29T09:40:46.809Z,11
2018-05-29T09:50:46.788Z,11
2018-05-29T10:00:46.829Z,11
2018-05-29T10:10:46.927Z,12
2018-05-29T10:20:46.733Z,14
2018-05-29T10:30:46.803Z,15
2018-05-29T10:40:46.873Z,14
2018-05-29T10:50:46.938Z,17
2018-05-29T11:00:47.037Z,16
2018-05-29T11:10:46.818Z,17
2018-05-29T11:20:46.949Z,14
2018-05-29T11:30:46.874Z,14
2018-05-29T11:40:47.003Z,13
2018-05-29T11:50:46.809Z,13
2018-05-29T12:00:46.859Z,14
2018-05-29T12:10:46.942Z,15
2018-05-29T12:20:47.709Z,14
2018-05-29T12:30:46.848Z,14
2018-05-29T12:40:47.182Z,14
2018-05-29T12:50:46.779Z,14
2018-05-29T13:00:46.821Z,14
2018-05-29T13:10:46.846Z,15
2018-05-29T13:20:47.728Z,16
2018-05-29T13:30:46.925Z,17
2018-05-29T13:40:46.943Z,17
2018-05-29T13:50:46.841Z,17
2018-05-29T14:00:47.920Z,19
2018-05-29T14:10:47.026Z,17
2018-05-29T14:20:46.875Z,15
2018-05-29T14:30:46.890Z,13
2018-05-29T14:40:47.096Z,12
2018-05-29T14:50:47.057Z,13
2018-05-29T15:00:50.794Z,13
2018-05-29T15:10:46.946Z,13
2018-05-29T15:20:47.043Z,13
2018-05-29T15:30:46.914Z,14
2018-05-29T15:40:47.069Z,15
2018-05-29T15:50:48.115Z,15
2018-05-29T16:00:49.846Z,14
2018-05-29T16:10:48.055Z,16
2018-05-29T16:20:47.128Z,15
2018-05-29T16:30:47.239Z,14
2018-05-29T16:40:47.308Z,13
2018-05-29T16:50:46.977Z,11
2018-05-29T17:00:47.231Z,11
2018-05-29T17:10:46.973Z,10
2018-05-29T17:20:47.040Z,11
2018-05-29T17:30:47.250Z,11
2018-05-29T17:40:47.041Z,10
2018-05-29T17:50:50.663Z,11
2018-05-29T18:00:48.211Z,12
2018-05-29T18:10:50.296Z,12
2018-05-29T18:20:50.854Z,13
2018-05-29T18:30:48.019Z,13
2018-05-29T18:40:47.266Z,14
2018-05-29T18:50:47.045Z,12
2018-05-29T19:00:46.990Z,12
2018-05-29T19:10:47.051Z,11
2018-05-29T19:20:47.036Z,11
2018-05-29T19:30:46.928Z,13
2018-05-29T19:42:14.512Z,13
2018-05-29T19:52:15.106Z,15
2018-05-29T20:00:47.478Z,13
2018-05-29T20:10:47.017Z,14
2018-05-29T20:20:47.479Z,16
2018-05-29T20:30:47.063Z,16
2018-05-29T20:40:50.504Z,16
2018-05-29T20:50:47.466Z,16
2018-05-29T21:00:47.169Z,14
2018-05-29T21:10:47.131Z,15
2018-05-29T21:20:47.212Z,17
2018-05-29T21:30:47.282Z,17
2018-05-29T21:40:47.544Z,18
2018-05-29T21:50:54.146Z,17
2018-05-29T22:00:48.247Z,19
2018-05-29T22:10:56.540Z,20
2018-05-29T22:20:49.028Z,26
2018-05-29T22:30:47.170Z,27
2018-05-29T22:40:47.683Z,28
2018-05-29T22:50:48.052Z,30
2018-05-29T23:00:47.703Z,29
2018-05-29T23:10:48.617Z,32
2018-05-29T23:20:47.287Z,29
2018-05-29T23:30:47.310Z,29
2018-05-29T23:40:47.088Z,28
2018-05-29T23:50:47.054Z,33
